Time;durP1;ratioP1;P1;durP2;ratioP2;P2;SDS_P1;SDS_P2;PMS_P1;PMS_P2;Temp;Humidity;BMP_temperature;BMP_pressure;BME280_temperature;BME280_humidity;BME280_pressure;Samples;Min_cycle;Max_cycle;Signal;HPM_P1;HPM_P2
2022/01/10 00:00:12;;;;;;;10.57;3.72;;;;;;;;;;4991073;28;104104;-76
2022/01/10 00:02:39;;;;;;;8.52;3.90;;;;;;;;;;5034034;27;100075;-75
2022/01/10 00:05:07;;;;;;;9.07;3.60;;;;;;;;;;5048930;27;100337;-75
2022/01/10 00:07:35;;;;;;;8.85;4.00;;;;;;;;;;5048848;27;100635;-75
2022/01/10 00:10:03;;;;;;;8.30;4.07;;;;;;;;;;5032148;28;100207;-75
2022/01/10 00:12:30;;;;;;;9.30;4.13;;;;;;;;;;5026841;28;100062;-76
2022/01/10 00:14:56;;;;;;;8.25;3.60;;;;;;;;;;5013032;28;100402;-76
2022/01/10 00:17:23;;;;;;;7.40;3.08;;;;;;;;;;5031537;28;101089;-76
2022/01/10 00:19:50;;;;;;;10.23;4.50;;;;;;;;;;5033299;27;100115;-76
2022/01/10 00:22:18;;;;;;;9.68;4.50;;;;;;;;;;5033835;27;102244;-75
2022/01/10 00:24:45;;;;;;;11.82;4.60;;;;;;;;;;5031288;28;100909;-75
2022/01/10 00:27:12;;;;;;;11.02;4.03;;;;;;;;;;5032460;27;101093;-75
2022/01/10 00:29:39;;;;;;;12.70;4.82;;;;;;;;;;5019338;28;101792;-75
2022/01/10 00:32:06;;;;;;;6.88;3.88;;;;;;;;;;5013553;28;100014;-76
2022/01/10 00:34:34;;;;;;;9.80;4.15;;;;;;;;;;5012385;28;100168;-76
2022/01/10 00:37:01;;;;;;;9.88;4.20;;;;;;;;;;5011738;28;100519;-75
2022/01/10 00:39:28;;;;;;;10.35;4.78;;;;;;;;;;5013441;28;99988;-75
2022/01/10 00:41:56;;;;;;;11.77;4.57;;;;;;;;;;5015129;28;100132;-76
2022/01/10 00:44:26;;;;;;;13.82;4.78;;;;;;;;;;5047613;27;100248;-75
2022/01/10 00:46:53;;;;;;;7.82;3.85;;;;;;;;;;5024911;28;100475;-75
2022/01/10 00:49:20;;;;;;;9.10;3.70;;;;;;;;;;5011926;28;102422;-75
2022/01/10 00:51:47;;;;;;;9.55;4.18;;;;;;;;;;5031453;28;100039;-75
2022/01/10 00:54:14;;;;;;;9.98;4.20;;;;;;;;;;5032747;28;102875;-75
2022/01/10 00:56:40;;;;;;;9.27;4.63;;;;;;;;;;5032916;28;100543;-75
2022/01/10 00:59:07;;;;;;;8.77;4.25;;;;;;;;;;5048370;27;100152;-75
2022/01/10 01:01:34;;;;;;;9.02;4.10;;;;;;;;;;5032909;28;100155;-75
2022/01/10 01:04:02;;;;;;;8.88;3.65;;;;;;;;;;5048305;27;100287;-75
2022/01/10 01:06:29;;;;;;;10.57;3.88;;;;;;;;;;5033546;28;100659;-75
2022/01/10 01:09:01;;;;;;;9.38;4.18;;;;;;;;;;5033240;28;100121;-76
2022/01/10 01:14:23;;;;;;;8.68;3.67;;;;;;;;;;5033230;28;100170;-76
2022/01/10 01:17:08;;;;;;;8.50;3.78;;;;;;;;;;5036073;27;100628;-75
2022/01/10 01:20:05;;;;;;;7.43;3.63;;;;;;;;;;5026324;27;103247;-75
2022/01/10 01:25:17;;;;;;;8.68;4.10;;;;;;;;;;5021321;28;102317;-76
2022/01/10 01:27:45;;;;;;;9.70;4.30;;;;;;;;;;5031031;28;100642;-75
2022/01/10 01:30:12;;;;;;;12.63;5.03;;;;;;;;;;5018343;27;101643;-75
2022/01/10 01:32:39;;;;;;;8.98;4.25;;;;;;;;;;5052023;27;100174;-75
2022/01/10 01:35:07;;;;;;;8.00;4.20;;;;;;;;;;5013835;28;100299;-75
2022/01/10 01:37:38;;;;;;;9.55;4.00;;;;;;;;;;5013940;28;102703;-75
2022/01/10 01:40:07;;;;;;;13.07;4.97;;;;;;;;;;5001696;28;100172;-76
2022/01/10 01:42:40;;;;;;;8.98;3.97;;;;;;;;;;5014493;28;100438;-76
2022/01/10 01:45:09;;;;;;;;;;;;;;;;;;5014716;27;100288;-76
2022/01/10 01:47:36;;;;;;;8.30;3.80;;;;;;;;;;5014149;28;100620;-76
2022/01/10 01:50:08;;;;;;;10.85;4.57;;;;;;;;;;5017426;28;100310;-75
2022/01/10 01:52:35;;;;;;;8.75;4.30;;;;;;;;;;5034912;28;100149;-74
2022/01/10 01:55:03;;;;;;;15.70;5.30;;;;;;;;;;5017675;28;100844;-75
2022/01/10 01:57:30;;;;;;;11.10;4.90;;;;;;;;;;5034183;27;100602;-74
2022/01/10 01:59:56;;;;;;;8.10;3.90;;;;;;;;;;5000856;28;100123;-75
2022/01/10 02:02:29;;;;;;;14.02;4.93;;;;;;;;;;5017886;27;100220;-74
2022/01/10 02:04:57;;;;;;;10.40;4.07;;;;;;;;;;5033198;28;101684;-75
2022/01/10 02:07:24;;;;;;;13.93;5.25;;;;;;;;;;5050742;27;100541;-75
2022/01/10 02:09:50;;;;;;;14.82;5.55;;;;;;;;;;5031407;27;100223;-75
2022/01/10 02:12:17;;;;;;;13.43;5.78;;;;;;;;;;5031482;27;100167;-75
2022/01/10 02:14:46;;;;;;;14.95;6.45;;;;;;;;;;4983130;28;103882;-75
2022/01/10 02:17:22;;;;;;;14.60;7.03;;;;;;;;;;5033459;27;101203;-75
2022/01/10 02:19:55;;;;;;;17.15;6.60;;;;;;;;;;5034484;28;100123;-75
2022/01/10 02:22:23;;;;;;;15.45;5.75;;;;;;;;;;5051262;27;100138;-75
2022/01/10 02:25:23;;;;;;;14.95;5.82;;;;;;;;;;5022437;27;100729;-75
2022/01/10 02:27:51;;;;;;;12.75;5.88;;;;;;;;;;5016892;28;100662;-74
2022/01/10 02:30:18;;;;;;;12.68;5.85;;;;;;;;;;5029606;28;102031;-74
2022/01/10 02:32:46;;;;;;;13.57;6.10;;;;;;;;;;5034399;28;100136;-74
2022/01/10 02:35:27;;;;;;;16.30;7.05;;;;;;;;;;5009675;28;101063;-75
2022/01/10 02:37:55;;;;;;;13.15;6.53;;;;;;;;;;5013465;28;100752;-75
2022/01/10 02:40:25;;;;;;;14.68;6.88;;;;;;;;;;4997833;28;100897;-75
2022/01/10 02:42:52;;;;;;;18.83;6.25;;;;;;;;;;5030394;27;100073;-75
2022/01/10 02:45:19;;;;;;;19.23;8.10;;;;;;;;;;4997312;28;102203;-74
2022/01/10 02:47:49;;;;;;;16.63;7.00;;;;;;;;;;5016537;28;100757;-75
2022/01/10 02:50:19;;;;;;;16.20;7.72;;;;;;;;;;4997158;28;102962;-75
2022/01/10 02:52:49;;;;;;;20.15;7.70;;;;;;;;;;5017001;28;100105;-75
2022/01/10 02:55:17;;;;;;;18.48;8.38;;;;;;;;;;5005425;28;100220;-74
2022/01/10 02:57:44;;;;;;;17.55;8.15;;;;;;;;;;5015824;28;100784;-74
2022/01/10 03:00:15;;;;;;;26.85;9.75;;;;;;;;;;5017079;28;100087;-74
2022/01/10 03:02:44;;;;;;;18.73;8.48;;;;;;;;;;5017381;28;100180;-74
2022/01/10 03:05:11;;;;;;;17.60;7.50;;;;;;;;;;5033206;28;100505;-74
2022/01/10 03:07:38;;;;;;;18.27;8.27;;;;;;;;;;5033094;28;100516;-75
2022/01/10 03:10:05;;;;;;;17.85;8.45;;;;;;;;;;5050239;27;100079;-75
2022/01/10 03:12:32;;;;;;;14.00;7.28;;;;;;;;;;5033587;28;100168;-74
2022/01/10 03:14:59;;;;;;;19.52;8.30;;;;;;;;;;5032880;27;100715;-74
2022/01/10 03:17:27;;;;;;;18.85;7.45;;;;;;;;;;5049554;27;100580;-76
2022/01/10 03:19:54;;;;;;;17.80;8.48;;;;;;;;;;5034537;27;100150;-75
2022/01/10 03:22:21;;;;;;;13.63;6.57;;;;;;;;;;5033665;28;100093;-74
2022/01/10 03:24:48;;;;;;;19.25;8.20;;;;;;;;;;5029128;28;100856;-75
2022/01/10 03:27:18;;;;;;;16.60;7.53;;;;;;;;;;5014338;27;101175;-75
2022/01/10 03:29:44;;;;;;;17.33;7.93;;;;;;;;;;5049602;27;100156;-74
2022/01/10 03:32:11;;;;;;;18.77;7.95;;;;;;;;;;5034529;27;100015;-74
2022/01/10 03:34:39;;;;;;;17.35;8.23;;;;;;;;;;5031403;28;100906;-74
2022/01/10 03:37:06;;;;;;;9.73;5.32;;;;;;;;;;5045595;27;101592;-74
2022/01/10 03:39:35;;;;;;;14.20;6.78;;;;;;;;;;5013946;28;101773;-75
2022/01/10 03:42:03;;;;;;;15.68;6.50;;;;;;;;;;5031795;28;100233;-74
2022/01/10 03:44:30;;;;;;;13.95;5.78;;;;;;;;;;5030637;28;103610;-75
2022/01/10 03:46:57;;;;;;;12.82;6.10;;;;;;;;;;5014770;28;100803;-75
2022/01/10 03:49:26;;;;;;;12.52;6.28;;;;;;;;;;5031495;27;100389;-75
2022/01/10 03:51:53;;;;;;;19.23;7.30;;;;;;;;;;5032033;28;100138;-75
2022/01/10 03:54:20;;;;;;;17.80;7.85;;;;;;;;;;5031257;27;101939;-74
2022/01/10 03:56:51;;;;;;;14.05;6.35;;;;;;;;;;5014717;28;100740;-75
2022/01/10 03:59:18;;;;;;;17.83;6.95;;;;;;;;;;5030535;28;100169;-74
2022/01/10 04:01:45;;;;;;;15.25;7.55;;;;;;;;;;4996260;28;100412;-75
2022/01/10 04:04:13;;;;;;;15.05;8.15;;;;;;;;;;5028692;27;100754;-75
2022/01/10 04:06:41;;;;;;;12.48;5.78;;;;;;;;;;4998038;28;102582;-75
2022/01/10 04:09:08;;;;;;;14.20;7.15;;;;;;;;;;5030205;28;101783;-74
2022/01/10 04:11:35;;;;;;;16.27;7.50;;;;;;;;;;5013810;28;100045;-75
2022/01/10 04:14:02;;;;;;;13.50;6.50;;;;;;;;;;4995928;28;100316;-75
2022/01/10 04:16:29;;;;;;;16.08;8.02;;;;;;;;;;5030998;28;102776;-75
2022/01/10 04:18:57;;;;;;;12.95;7.10;;;;;;;;;;5032447;28;100142;-76
2022/01/10 04:21:24;;;;;;;15.50;6.13;;;;;;;;;;5000131;28;101843;-74
2022/01/10 04:23:51;;;;;;;17.40;8.30;;;;;;;;;;5014526;28;102484;-75
2022/01/10 04:26:18;;;;;;;17.23;6.82;;;;;;;;;;5031878;28;100657;-75
2022/01/10 04:28:47;;;;;;;18.33;7.97;;;;;;;;;;5048875;27;100184;-75
2022/01/10 04:31:14;;;;;;;18.55;7.10;;;;;;;;;;5015990;28;99825;-75
2022/01/10 04:33:42;;;;;;;15.07;7.45;;;;;;;;;;5031379;28;100451;-75
2022/01/10 04:36:08;;;;;;;18.48;7.32;;;;;;;;;;5031982;28;103895;-76
2022/01/10 04:38:35;;;;;;;15.80;7.53;;;;;;;;;;5016592;28;101547;-75
2022/01/10 04:41:03;;;;;;;21.27;8.60;;;;;;;;;;5012300;28;100136;-75
2022/01/10 04:43:30;;;;;;;16.88;7.60;;;;;;;;;;5017745;28;100159;-75
2022/01/10 04:46:02;;;;;;;11.45;5.80;;;;;;;;;;5048644;27;100581;-75
2022/01/10 04:48:29;;;;;;;12.60;6.55;;;;;;;;;;5015571;28;100169;-75
2022/01/10 04:53:29;;;;;;;17.80;8.10;;;;;;;;;;5031168;28;100176;-75
2022/01/10 04:55:56;;;;;;;17.40;8.48;;;;;;;;;;5014895;28;100633;-75
2022/01/10 04:58:23;;;;;;;14.95;6.72;;;;;;;;;;5032125;28;100072;-75
2022/01/10 05:00:55;;;;;;;17.58;8.15;;;;;;;;;;5015380;27;100187;-75
2022/01/10 05:03:24;;;;;;;18.33;7.68;;;;;;;;;;5048524;27;100344;-75
2022/01/10 05:05:54;;;;;;;17.90;7.47;;;;;;;;;;5048319;27;101283;-75
2022/01/10 05:08:22;;;;;;;22.30;10.40;;;;;;;;;;4999064;28;102622;-75
2022/01/10 05:10:50;;;;;;;21.00;9.07;;;;;;;;;;5031860;27;100176;-75
2022/01/10 05:13:17;;;;;;;19.80;9.07;;;;;;;;;;5027731;27;100351;-75
2022/01/10 05:15:46;;;;;;;20.25;9.32;;;;;;;;;;5013151;28;100898;-75
2022/01/10 05:18:22;;;;;;;29.05;11.70;;;;;;;;;;5030954;28;100155;-75
2022/01/10 05:20:49;;;;;;;30.02;12.50;;;;;;;;;;5014377;28;100122;-75
2022/01/10 05:23:16;;;;;;;24.30;10.30;;;;;;;;;;5031518;27;100887;-75
2022/01/10 05:25:44;;;;;;;17.90;7.68;;;;;;;;;;5030458;27;101254;-75
2022/01/10 05:28:13;;;;;;;24.42;10.85;;;;;;;;;;5014380;28;100271;-75
2022/01/10 05:30:40;;;;;;;24.75;9.88;;;;;;;;;;5047972;27;100166;-75
2022/01/10 05:33:08;;;;;;;32.38;12.77;;;;;;;;;;5030791;27;100207;-75
2022/01/10 05:35:46;;;;;;;32.28;12.68;;;;;;;;;;5013012;28;100922;-75
2022/01/10 05:38:13;;;;;;;30.98;12.65;;;;;;;;;;5031086;28;100101;-75
2022/01/10 05:40:40;;;;;;;24.38;10.20;;;;;;;;;;5029457;28;100186;-75
2022/01/10 05:43:08;;;;;;;28.52;11.93;;;;;;;;;;5018065;27;100288;-75
2022/01/10 05:45:35;;;;;;;38.45;15.73;;;;;;;;;;5009917;27;100724;-74
2022/01/10 05:48:08;;;;;;;57.53;18.55;;;;;;;;;;5030813;27;100091;-75
2022/01/10 05:50:37;;;;;;;46.30;15.30;;;;;;;;;;5031714;27;99994;-76
2022/01/10 05:53:08;;;;;;;41.72;15.70;;;;;;;;;;5014348;28;101040;-75
2022/01/10 05:55:38;;;;;;;26.55;11.25;;;;;;;;;;5014666;28;100727;-73
2022/01/10 05:58:07;;;;;;;29.33;13.23;;;;;;;;;;5030764;27;100131;-74
2022/01/10 06:00:37;;;;;;;38.75;15.38;;;;;;;;;;5030669;27;100127;-74
2022/01/10 06:03:04;;;;;;;31.20;13.55;;;;;;;;;;5025196;28;102356;-74
2022/01/10 06:05:39;;;;;;;35.15;15.05;;;;;;;;;;5030679;27;104065;-74
2022/01/10 06:08:08;;;;;;;39.95;16.23;;;;;;;;;;5004111;28;100228;-75
2022/01/10 06:10:39;;;;;;;45.55;15.85;;;;;;;;;;4998548;28;100201;-74
2022/01/10 06:13:23;;;;;;;33.97;15.98;;;;;;;;;;5029134;27;100471;-75
2022/01/10 06:15:51;;;;;;;44.60;17.70;;;;;;;;;;5012988;28;100604;-74
2022/01/10 06:18:18;;;;;;;40.35;15.38;;;;;;;;;;5028614;28;100217;-76
2022/01/10 06:20:45;;;;;;;39.97;16.50;;;;;;;;;;5022141;28;100038;-75
2022/01/10 06:23:12;;;;;;;39.92;16.33;;;;;;;;;;5033254;28;102404;-75
2022/01/10 06:25:40;;;;;;;41.40;17.33;;;;;;;;;;5032432;28;100887;-75
2022/01/10 06:28:07;;;;;;;41.20;15.93;;;;;;;;;;5031308;28;100146;-74
2022/01/10 06:30:37;;;;;;;46.00;17.17;;;;;;;;;;5033344;27;103228;-74
2022/01/10 06:33:04;;;;;;;46.13;18.65;;;;;;;;;;5033027;28;100390;-74
2022/01/10 06:35:33;;;;;;;40.25;17.67;;;;;;;;;;5049200;27;103057;-75
2022/01/10 06:38:02;;;;;;;45.10;18.08;;;;;;;;;;5049044;27;100265;-74
2022/01/10 06:40:30;;;;;;;48.80;18.15;;;;;;;;;;4996873;28;100182;-75
2022/01/10 06:42:57;;;;;;;50.22;20.73;;;;;;;;;;5012941;27;100303;-74
2022/01/10 06:45:26;;;;;;;47.15;18.83;;;;;;;;;;4999806;28;100577;-74
2022/01/10 06:47:53;;;;;;;56.40;22.48;;;;;;;;;;5013538;28;100122;-74
2022/01/10 06:50:21;;;;;;;57.10;20.88;;;;;;;;;;5013241;28;100245;-74
2022/01/10 06:52:50;;;;;;;40.72;18.48;;;;;;;;;;5030831;28;102807;-73
2022/01/10 06:55:18;;;;;;;49.42;20.42;;;;;;;;;;5014784;28;100643;-74
2022/01/10 06:57:44;;;;;;;47.97;19.10;;;;;;;;;;4996520;28;100131;-74
2022/01/10 07:00:15;;;;;;;46.97;19.95;;;;;;;;;;5032638;28;100124;-75
2022/01/10 07:02:48;;;;;;;63.17;24.13;;;;;;;;;;5031953;28;100316;-75
2022/01/10 07:05:15;;;;;;;65.13;25.80;;;;;;;;;;5032484;27;100697;-74
2022/01/10 07:07:45;;;;;;;65.20;24.00;;;;;;;;;;5031787;28;100396;-74
2022/01/10 07:10:34;;;;;;;72.88;28.10;;;;;;;;;;5035908;27;100110;-74
2022/01/10 07:13:03;;;;;;;54.40;21.73;;;;;;;;;;5032188;27;100190;-74
2022/01/10 07:15:30;;;;;;;47.85;19.58;;;;;;;;;;5031830;28;100563;-75
2022/01/10 07:18:00;;;;;;;61.78;24.45;;;;;;;;;;5013675;28;100118;-75
2022/01/10 07:20:32;;;;;;;59.15;24.70;;;;;;;;;;5031718;27;100197;-75
2022/01/10 07:22:59;;;;;;;69.28;26.77;;;;;;;;;;5015586;27;100218;-74
2022/01/10 07:25:26;;;;;;;62.28;26.20;;;;;;;;;;5048464;27;100631;-75
2022/01/10 07:27:52;;;;;;;77.80;30.90;;;;;;;;;;5032429;28;101296;-75
2022/01/10 07:30:19;;;;;;;57.60;24.55;;;;;;;;;;5032912;27;100290;-76
2022/01/10 07:32:46;;;;;;;55.50;22.98;;;;;;;;;;5029761;28;100556;-76
2022/01/10 07:35:13;;;;;;;69.63;26.73;;;;;;;;;;5032069;28;101561;-76
2022/01/10 07:37:40;;;;;;;65.75;27.00;;;;;;;;;;5033522;27;100132;-75
2022/01/10 07:40:09;;;;;;;113.97;40.17;;;;;;;;;;5032049;28;100035;-75
2022/01/10 07:42:36;;;;;;;89.72;36.10;;;;;;;;;;5031499;28;100264;-75
2022/01/10 07:45:21;;;;;;;78.40;30.50;;;;;;;;;;5014400;28;103439;-75
2022/01/10 07:47:49;;;;;;;74.35;29.90;;;;;;;;;;5012850;28;100581;-75
2022/01/10 07:50:16;;;;;;;85.15;33.95;;;;;;;;;;5028600;27;100381;-75
2022/01/10 07:52:43;;;;;;;91.93;33.53;;;;;;;;;;5031716;28;103291;-75
2022/01/10 07:55:10;;;;;;;85.70;34.95;;;;;;;;;;5048213;27;100545;-75
2022/01/10 07:57:37;;;;;;;84.35;33.83;;;;;;;;;;5032743;27;100136;-75
2022/01/10 08:00:04;;;;;;;77.50;32.97;;;;;;;;;;4997978;28;100183;-75
2022/01/10 08:02:38;;;;;;;78.53;34.28;;;;;;;;;;5031610;27;100401;-75
2022/01/10 08:05:07;;;;;;;87.72;33.20;;;;;;;;;;5030974;28;101179;-75
2022/01/10 08:07:34;;;;;;;87.47;35.97;;;;;;;;;;5031088;28;100165;-75
2022/01/10 08:10:05;;;;;;;93.40;34.88;;;;;;;;;;5009432;27;100630;-74
2022/01/10 08:12:32;;;;;;;83.95;35.90;;;;;;;;;;5032477;27;100516;-74
2022/01/10 08:14:59;;;;;;;81.60;34.28;;;;;;;;;;5030700;27;100591;-74
2022/01/10 08:17:25;;;;;;;84.28;35.08;;;;;;;;;;5014996;27;100139;-75
2022/01/10 08:19:52;;;;;;;91.32;35.60;;;;;;;;;;5031763;27;100165;-75
2022/01/10 08:22:19;;;;;;;98.63;37.67;;;;;;;;;;5032537;27;100206;-74
2022/01/10 08:24:47;;;;;;;83.85;32.88;;;;;;;;;;5032490;27;102289;-74
2022/01/10 08:27:17;;;;;;;80.97;34.30;;;;;;;;;;5030920;27;100218;-75
2022/01/10 08:29:44;;;;;;;74.10;31.20;;;;;;;;;;5031511;27;100099;-75
2022/01/10 08:32:11;;;;;;;83.28;35.40;;;;;;;;;;5014514;27;104198;-75
2022/01/10 08:34:38;;;;;;;75.20;31.77;;;;;;;;;;5031141;27;100793;-75
2022/01/10 08:37:05;;;;;;;93.40;37.00;;;;;;;;;;5028568;27;100297;-75
2022/01/10 08:39:32;;;;;;;86.35;34.17;;;;;;;;;;5014988;27;100182;-75
2022/01/10 08:41:59;;;;;;;87.75;32.53;;;;;;;;;;5032255;27;100263;-75
2022/01/10 08:44:25;;;;;;;73.13;32.20;;;;;;;;;;5013568;27;100556;-76
2022/01/10 08:46:52;;;;;;;78.85;32.55;;;;;;;;;;5031273;27;100244;-75
2022/01/10 08:49:19;;;;;;;85.65;35.28;;;;;;;;;;5031441;27;100963;-75
2022/01/10 08:51:46;;;;;;;89.75;35.10;;;;;;;;;;5039288;27;103158;-76
2022/01/10 08:54:13;;;;;;;93.60;34.95;;;;;;;;;;5052151;27;101153;-73
2022/01/10 08:56:40;;;;;;;81.28;35.08;;;;;;;;;;5051102;27;100279;-74
2022/01/10 08:59:07;;;;;;;90.75;36.67;;;;;;;;;;5052985;27;100018;-74
2022/01/10 09:01:34;;;;;;;87.05;35.17;;;;;;;;;;5051653;27;101948;-75
2022/01/10 09:04:01;;;;;;;94.80;38.00;;;;;;;;;;5051999;27;100563;-75
2022/01/10 09:06:28;;;;;;;86.63;33.72;;;;;;;;;;5034821;27;100071;-74
2022/01/10 09:08:55;;;;;;;80.82;32.35;;;;;;;;;;5052737;27;100148;-74
2022/01/10 09:11:23;;;;;;;86.32;33.90;;;;;;;;;;5049826;27;100209;-75
2022/01/10 09:13:50;;;;;;;85.93;34.95;;;;;;;;;;5044446;27;101671;-75
2022/01/10 09:16:20;;;;;;;82.15;36.95;;;;;;;;;;5029598;27;100260;-75
2022/01/10 09:18:47;;;;;;;90.35;33.60;;;;;;;;;;4996994;27;100297;-75
2022/01/10 09:21:13;;;;;;;83.03;34.38;;;;;;;;;;5031137;27;100675;-75
2022/01/10 09:23:40;;;;;;;79.68;33.53;;;;;;;;;;5031565;27;100642;-76
2022/01/10 09:26:07;;;;;;;91.22;34.58;;;;;;;;;;5028069;27;100409;-75
2022/01/10 09:28:34;;;;;;;76.65;32.15;;;;;;;;;;5046642;27;100169;-75
2022/01/10 09:31:01;;;;;;;88.10;30.02;;;;;;;;;;5034245;27;102125;-75
2022/01/10 09:33:28;;;;;;;76.97;32.15;;;;;;;;;;5055187;27;100733;-76
2022/01/10 09:35:55;;;;;;;81.35;31.65;;;;;;;;;;5035705;27;100221;-76
2022/01/10 09:38:22;;;;;;;69.03;30.27;;;;;;;;;;5031737;27;100361;-76
2022/01/10 09:40:49;;;;;;;69.78;27.55;;;;;;;;;;4999565;28;101674;-76
2022/01/10 09:43:18;;;;;;;77.68;29.15;;;;;;;;;;5032402;27;101198;-76
2022/01/10 09:45:46;;;;;;;70.70;27.35;;;;;;;;;;5031384;27;100144;-76
2022/01/10 09:48:13;;;;;;;79.85;30.75;;;;;;;;;;5035450;27;100101;-76
2022/01/10 09:50:41;;;;;;;73.32;28.27;;;;;;;;;;5032810;27;100252;-76
2022/01/10 09:53:08;;;;;;;68.45;27.98;;;;;;;;;;5033746;27;100563;-74
2022/01/10 09:55:35;;;;;;;73.45;29.75;;;;;;;;;;5048878;27;100535;-74
2022/01/10 09:58:03;;;;;;;69.88;29.45;;;;;;;;;;5039489;27;100311;-75
2022/01/10 10:00:30;;;;;;;69.65;30.08;;;;;;;;;;5033452;27;102791;-74
2022/01/10 10:02:58;;;;;;;79.57;30.58;;;;;;;;;;5013464;27;102874;-75
2022/01/10 10:05:25;;;;;;;88.35;32.28;;;;;;;;;;5033192;27;100173;-75
2022/01/10 10:07:52;;;;;;;79.60;30.35;;;;;;;;;;5037715;27;100092;-75
2022/01/10 10:10:20;;;;;;;64.28;27.85;;;;;;;;;;5031871;27;100464;-75
2022/01/10 10:12:48;;;;;;;73.80;29.50;;;;;;;;;;5016133;27;100579;-75
2022/01/10 10:15:17;;;;;;;70.25;27.65;;;;;;;;;;5015451;27;100280;-75
2022/01/10 10:17:44;;;;;;;73.72;28.73;;;;;;;;;;4999036;27;100491;-75
2022/01/10 10:20:20;;;;;;;62.83;26.58;;;;;;;;;;5031696;27;100225;-75
2022/01/10 10:23:07;;;;;;;75.05;27.95;;;;;;;;;;5031188;27;101314;-75
2022/01/10 10:25:34;;;;;;;64.13;25.00;;;;;;;;;;5031882;27;100225;-75
2022/01/10 10:28:02;;;;;;;73.80;26.27;;;;;;;;;;5033724;27;101388;-75
2022/01/10 10:30:30;;;;;;;64.63;25.85;;;;;;;;;;5031676;27;100382;-75
2022/01/10 10:33:14;;;;;;;56.90;24.60;;;;;;;;;;5035941;27;100580;-74
2022/01/10 10:35:44;;;;;;;61.60;22.95;;;;;;;;;;5051412;27;100109;-74
2022/01/10 10:38:11;;;;;;;60.33;23.15;;;;;;;;;;5051357;27;101608;-74
2022/01/10 10:40:41;;;;;;;57.50;23.55;;;;;;;;;;5052043;27;100340;-75
2022/01/10 10:43:08;;;;;;;63.13;24.63;;;;;;;;;;5046581;27;100582;-75
2022/01/10 10:45:36;;;;;;;58.35;23.17;;;;;;;;;;5034102;27;100341;-75
2022/01/10 10:48:06;;;;;;;50.33;21.67;;;;;;;;;;5050509;27;100206;-74
2022/01/10 10:50:41;;;;;;;54.00;21.83;;;;;;;;;;5042751;27;100506;-75
2022/01/10 10:53:10;;;;;;;50.53;22.88;;;;;;;;;;5015932;27;102925;-75
2022/01/10 10:55:38;;;;;;;63.60;23.50;;;;;;;;;;5033853;27;100350;-75
2022/01/10 10:58:08;;;;;;;52.72;21.23;;;;;;;;;;5032373;27;102684;-75
2022/01/10 11:00:36;;;;;;;58.65;22.95;;;;;;;;;;5052010;27;100188;-75
2022/01/10 11:03:03;;;;;;;53.65;20.35;;;;;;;;;;5050448;27;101268;-75
2022/01/10 11:05:30;;;;;;;57.63;23.35;;;;;;;;;;5052865;27;100424;-75
2022/01/10 11:07:58;;;;;;;52.33;20.45;;;;;;;;;;5034425;27;101688;-75
2022/01/10 11:10:25;;;;;;;53.20;22.10;;;;;;;;;;5034827;27;100308;-75
2022/01/10 11:12:55;;;;;;;53.97;21.45;;;;;;;;;;5051210;27;101115;-75
2022/01/10 11:15:22;;;;;;;55.60;21.98;;;;;;;;;;5017830;27;100259;-75
2022/01/10 11:18:10;;;;;;;53.85;21.40;;;;;;;;;;5017668;27;100338;-75
2022/01/10 11:20:48;;;;;;;54.17;22.35;;;;;;;;;;5017085;27;100361;-75
2022/01/10 11:23:38;;;;;;;55.25;22.75;;;;;;;;;;5034897;27;100609;-75
2022/01/10 11:26:06;;;;;;;57.10;23.10;;;;;;;;;;5035081;27;100555;-75
2022/01/10 11:28:32;;;;;;;47.92;21.48;;;;;;;;;;5017752;27;100243;-75
2022/01/10 11:31:03;;;;;;;54.92;23.55;;;;;;;;;;5016144;27;100546;-75
2022/01/10 11:33:36;;;;;;;51.85;22.75;;;;;;;;;;5016392;27;100900;-76
2022/01/10 11:36:08;;;;;;;59.15;24.00;;;;;;;;;;5051190;27;100596;-75
2022/01/10 11:38:42;;;;;;;57.92;23.40;;;;;;;;;;5032800;27;100730;-74
2022/01/10 11:41:29;;;;;;;63.08;24.05;;;;;;;;;;5049281;27;100213;-75
2022/01/10 11:44:04;;;;;;;58.92;24.10;;;;;;;;;;5050939;27;100773;-76
2022/01/10 11:46:44;;;;;;;68.65;25.50;;;;;;;;;;5051578;27;100025;-74
2022/01/10 11:49:12;;;;;;;61.25;23.20;;;;;;;;;;5032907;27;101264;-75
2022/01/10 11:52:06;;;;;;;65.40;25.60;;;;;;;;;;5051719;27;100822;-74
2022/01/10 11:54:39;;;;;;;60.03;23.45;;;;;;;;;;5048366;27;100959;-74
2022/01/10 11:57:15;;;;;;;68.70;24.10;;;;;;;;;;5016153;27;101206;-74
2022/01/10 11:59:43;;;;;;;62.60;23.77;;;;;;;;;;5001233;27;100453;-74
2022/01/10 12:02:15;;;;;;;62.78;25.23;;;;;;;;;;5031373;27;100278;-74
2022/01/10 12:05:08;;;;;;;55.33;22.80;;;;;;;;;;5032693;27;101370;-75
2022/01/10 12:07:35;;;;;;;54.97;22.77;;;;;;;;;;5050623;27;100161;-74
2022/01/10 12:10:22;;;;;;;56.05;21.67;;;;;;;;;;5049196;27;100210;-75
2022/01/10 12:12:54;;;;;;;53.88;20.90;;;;;;;;;;5049864;27;100393;-75
2022/01/10 12:15:21;;;;;;;45.63;18.70;;;;;;;;;;5002101;27;103684;-73
2022/01/10 12:17:47;;;;;;;47.88;19.75;;;;;;;;;;5031908;27;100335;-76
2022/01/10 12:20:14;;;;;;;47.92;18.98;;;;;;;;;;5051677;27;100079;-73
2022/01/10 12:22:41;;;;;;;48.30;18.70;;;;;;;;;;5031728;27;100240;-73
2022/01/10 12:25:08;;;;;;;46.83;17.73;;;;;;;;;;5052136;27;101190;-73
2022/01/10 12:27:35;;;;;;;38.00;15.98;;;;;;;;;;5051252;27;100113;-73
2022/01/10 12:30:04;;;;;;;32.95;13.75;;;;;;;;;;5024915;27;100138;-75
2022/01/10 12:32:35;;;;;;;44.17;15.73;;;;;;;;;;5016178;27;100323;-73
2022/01/10 12:35:02;;;;;;;40.65;15.13;;;;;;;;;;5016955;27;102054;-75
2022/01/10 12:37:28;;;;;;;37.83;14.50;;;;;;;;;;5018077;27;100142;-75
2022/01/10 12:39:56;;;;;;;32.35;13.70;;;;;;;;;;5052171;27;100157;-75
2022/01/10 12:42:28;;;;;;;38.53;14.88;;;;;;;;;;5048042;27;100181;-74
2022/01/10 12:44:58;;;;;;;34.10;13.25;;;;;;;;;;5033833;27;101452;-74
2022/01/10 12:47:25;;;;;;;34.67;14.00;;;;;;;;;;5051753;27;100227;-74
2022/01/10 12:49:52;;;;;;;32.90;12.05;;;;;;;;;;5034358;27;101962;-75
2022/01/10 12:52:20;;;;;;;30.30;12.15;;;;;;;;;;5034461;27;100514;-74
2022/01/10 12:54:47;;;;;;;32.70;11.25;;;;;;;;;;5016813;27;100618;-74
2022/01/10 12:57:13;;;;;;;29.45;10.38;;;;;;;;;;5017052;27;100110;-75
2022/01/10 12:59:40;;;;;;;26.88;10.35;;;;;;;;;;5052121;27;100139;-74
2022/01/10 13:02:07;;;;;;;23.13;9.38;;;;;;;;;;5037127;27;100188;-74
2022/01/10 13:04:38;;;;;;;31.52;11.07;;;;;;;;;;5055858;27;101136;-74
2022/01/10 13:07:14;;;;;;;25.75;9.65;;;;;;;;;;5021186;27;100109;-74
2022/01/10 13:09:57;;;;;;;22.95;10.70;;;;;;;;;;5026023;27;100632;-75
2022/01/10 13:12:26;;;;;;;22.42;8.80;;;;;;;;;;5036982;27;101456;-74
2022/01/10 13:14:53;;;;;;;19.42;8.65;;;;;;;;;;5020517;27;100663;-74
2022/01/10 13:17:21;;;;;;;18.08;7.57;;;;;;;;;;5037194;27;100190;-74
2022/01/10 13:19:58;;;;;;;23.25;9.15;;;;;;;;;;5021394;27;100580;-75
2022/01/10 13:22:30;;;;;;;24.17;9.10;;;;;;;;;;5020434;27;100241;-74
2022/01/10 13:24:58;;;;;;;21.55;8.70;;;;;;;;;;5037294;27;100904;-75
2022/01/10 13:27:32;;;;;;;20.55;8.52;;;;;;;;;;5029672;27;100150;-74
2022/01/10 13:30:11;;;;;;;23.60;9.80;;;;;;;;;;4920022;27;102789;-74
2022/01/10 13:32:38;;;;;;;21.63;8.20;;;;;;;;;;5016799;28;100321;-75
2022/01/10 13:35:06;;;;;;;26.38;8.95;;;;;;;;;;4986017;28;102684;-74
2022/01/10 13:37:35;;;;;;;23.50;9.27;;;;;;;;;;5013549;28;102208;-74
2022/01/10 13:40:15;;;;;;;24.15;9.20;;;;;;;;;;5016859;28;100201;-74
2022/01/10 13:42:50;;;;;;;21.23;8.95;;;;;;;;;;5015170;28;100886;-74
2022/01/10 13:45:41;;;;;;;23.25;9.90;;;;;;;;;;5003434;28;100962;-75
2022/01/10 13:48:16;;;;;;;27.15;9.75;;;;;;;;;;5007724;28;100238;-74
2022/01/10 13:50:56;;;;;;;24.27;8.98;;;;;;;;;;5001149;28;100319;-73
2022/01/10 13:53:29;;;;;;;24.42;9.60;;;;;;;;;;5029025;28;100319;-75
2022/01/10 13:56:30;;;;;;;25.13;10.35;;;;;;;;;;5013167;28;100937;-75
2022/01/10 13:59:04;;;;;;;20.75;8.70;;;;;;;;;;4985359;28;100182;-74
2022/01/10 14:01:44;;;;;;;23.92;10.57;;;;;;;;;;5015471;28;101752;-76
2022/01/10 14:04:32;;;;;;;32.88;11.80;;;;;;;;;;4999511;28;101022;-74
2022/01/10 14:07:00;;;;;;;29.85;10.40;;;;;;;;;;5014684;28;101991;-76
2022/01/10 14:09:31;;;;;;;25.90;11.18;;;;;;;;;;5033494;28;100198;-74
2022/01/10 14:11:58;;;;;;;27.17;11.15;;;;;;;;;;4987886;27;100268;-74
2022/01/10 14:14:28;;;;;;;26.15;10.60;;;;;;;;;;5034062;28;100807;-75
2022/01/10 14:16:57;;;;;;;24.42;10.00;;;;;;;;;;4999242;28;100854;-74
2022/01/10 14:19:24;;;;;;;24.02;9.85;;;;;;;;;;5024967;27;100043;-74
2022/01/10 14:21:51;;;;;;;26.40;10.77;;;;;;;;;;5041846;27;100064;-75
2022/01/10 14:24:19;;;;;;;24.42;9.55;;;;;;;;;;5000111;28;100365;-74
2022/01/10 14:26:46;;;;;;;24.35;9.65;;;;;;;;;;4999638;28;103589;-75
2022/01/10 14:29:14;;;;;;;26.48;10.77;;;;;;;;;;5013847;28;100210;-75
2022/01/10 14:31:41;;;;;;;27.77;10.80;;;;;;;;;;5016137;28;100187;-75